Time;durP1;ratioP1;P1;durP2;ratioP2;P2;SDS_P1;SDS_P2;PMS_P1;PMS_P2;Temp;Humidity;BMP_temperature;BMP_pressure;BME280_temperature;BME280_humidity;BME280_pressure;Samples;Min_cycle;Max_cycle;Signal;HPM_P1;HPM_P2
2022/09/04 00:00:11;;;;;;;;;;;;;;;15.20;97.49;96504.47;5043213;28;19996;-78
2022/09/04 00:02:58;;;;;;;;;;;;;;;15.16;97.92;96501.53;5042629;28;19967;-78
2022/09/04 00:05:31;;;;;;;;;;;;;;;15.14;97.32;96498.34;5044805;28;19973;-78
2022/09/04 00:07:59;;;;;;;;;;;;;;;15.09;96.83;96492.97;5044204;28;20335;-79
2022/09/04 00:10:28;;;;;;;;;;;;;;;15.07;97.31;96496.91;5045945;28;19963;-79
2022/09/04 00:13:03;;;;;;;;;;;;;;;15.07;97.39;96496.91;5043731;28;20426;-78
2022/09/04 00:15:35;;;;;;;;;;;;;;;15.06;97.94;96490.84;5039794;28;20346;-78
2022/09/04 00:18:08;;;;;;;;;;;;;;;15.07;98.37;96489.78;5047535;28;19966;-78
2022/09/04 00:20:40;;;;;;;;;;;;;;;15.07;98.09;96494.25;5046578;28;19975;-79
2022/09/04 00:23:25;;;;;;;;;;;;;;;15.07;97.56;96504.81;5045657;28;19980;-79
2022/09/04 00:26:00;;;;;;;;;;;;;;;15.06;97.97;96500.59;5034158;28;19990;-79
2022/09/04 00:28:44;;;;;;;;;;;;;;;15.04;98.05;96513.25;5042494;28;19959;-79
2022/09/04 00:31:24;;;;;;;;;;;;;;;15.01;98.36;96504.78;5046651;28;19971;-79
2022/09/04 00:33:50;;;;;;;;;;;;;;;14.99;98.47;96509.50;5047167;28;19969;-79
2022/09/04 00:36:18;;;;;;;;;;;;;;;14.96;97.67;96507.34;5043984;28;19980;-79
2022/09/04 00:38:46;;;;;;;;;;;;;;;14.95;97.36;96507.56;5042944;28;19958;-79
2022/09/04 00:41:14;;;;;;;;;;;;;;;14.93;96.97;96507.84;5041644;28;19960;-79
2022/09/04 00:43:59;;;;;;;;;;;;;;;14.90;96.89;96503.03;5040907;28;19961;-79
2022/09/04 00:46:28;;;;;;;;;;;;;;;14.88;96.91;96510.38;5043820;28;19971;-79
2022/09/04 00:49:15;;;;;;;;;;;;;;;14.85;96.99;96510.09;5045149;28;19964;-79
2022/09/04 00:52:13;;;;;;;;;;;;;;;14.82;97.20;96517.47;5044967;28;19964;-79
2022/09/04 00:54:51;;;;;;;;;;;;;;;14.83;97.27;96526.19;5015566;28;19968;-79
2022/09/04 00:57:56;;;;;;;;;;;;;;;14.81;98.26;96528.25;5044975;28;19965;-79
2022/09/04 01:00:24;;;;;;;;;;;;;;;14.79;98.73;96527.69;4988402;28;19962;-79
2022/09/04 01:03:05;;;;;;;;;;;;;;;14.76;98.46;96534.28;4995621;28;20066;-79
2022/09/04 01:05:49;;;;;;;;;;;;;;;14.74;98.96;96531.06;5025573;28;20421;-79
2022/09/04 01:08:15;;;;;;;;;;;;;;;14.73;98.92;96534.72;5042350;28;19976;-79
2022/09/04 01:10:48;;;;;;;;;;;;;;;14.71;98.14;96536.03;5047881;28;19967;-79
2022/09/04 01:13:23;;;;;;;;;;;;;;;14.67;98.24;96535.69;5043925;28;20546;-78
2022/09/04 01:15:56;;;;;;;;;;;;;;;14.65;98.08;96534.34;5044147;28;19960;-79
2022/09/04 01:18:45;;;;;;;;;;;;;;;14.65;98.38;96531.72;5044295;28;20447;-79
2022/09/04 01:21:29;;;;;;;;;;;;;;;14.64;98.68;96538.84;5019334;28;19967;-79
2022/09/04 01:24:07;;;;;;;;;;;;;;;14.63;98.58;96537.22;5039238;28;20330;-79
2022/09/04 01:26:45;;;;;;;;;;;;;;;14.61;98.06;96532.22;5042897;28;20455;-78
2022/09/04 01:29:21;;;;;;;;;;;;;;;14.61;98.39;96534.03;5051077;28;19953;-79
2022/09/04 01:31:51;;;;;;;;;;;;;;;14.60;98.56;96537.72;5041634;28;19980;-79
2022/09/04 01:34:27;;;;;;;;;;;;;;;14.58;98.39;96545.88;5044876;28;19964;-79
2022/09/04 01:37:12;;;;;;;;;;;;;;;14.56;97.95;96550.59;5044201;28;19959;-79
2022/09/04 01:39:38;;;;;;;;;;;;;;;14.53;97.37;96560.78;5048770;28;19965;-79
2022/09/04 01:42:13;;;;;;;;;;;;;;;14.49;97.36;96552.56;5041650;28;20168;-79
2022/09/04 01:44:39;;;;;;;;;;;;;;;14.45;97.69;96559.34;5037801;28;19967;-79
2022/09/04 01:47:16;;;;;;;;;;;;;;;14.42;97.13;96559.81;5042219;28;19977;-79
2022/09/04 01:49:45;;;;;;;;;;;;;;;14.39;97.44;96553.19;5045122;28;19988;-79
2022/09/04 01:52:17;;;;;;;;;;;;;;;14.37;97.60;96562.38;5048171;28;19965;-79
2022/09/04 01:54:58;;;;;;;;;;;;;;;14.34;97.22;96561.03;5039786;28;19971;-79
2022/09/04 01:57:33;;;;;;;;;;;;;;;14.31;97.66;96561.50;5039835;28;19965;-79
2022/09/04 02:00:07;;;;;;;;;;;;;;;14.28;97.44;96564.63;5039453;28;19958;-79
2022/09/04 02:02:48;;;;;;;;;;;;;;;14.28;97.70;96563.81;5047416;28;19962;-80
2022/09/04 02:05:17;;;;;;;;;;;;;;;14.26;97.48;96561.44;5050605;28;19957;-80
2022/09/04 02:07:52;;;;;;;;;;;;;;;14.25;97.27;96557.19;5047658;28;20041;-80
2022/09/04 02:10:29;;;;;;;;;;;;;;;14.24;97.29;96562.69;5045164;28;19961;-79
2022/09/04 02:12:57;;;;;;;;;;;;;;;14.19;97.04;96560.75;5046933;28;20368;-79
2022/09/04 02:15:42;;;;;;;;;;;;;;;14.17;96.58;96562.84;5044804;28;19963;-79
2022/09/04 02:18:12;;;;;;;;;;;;;;;14.17;96.42;96576.03;5050975;28;20412;-80
2022/09/04 02:20:49;;;;;;;;;;;;;;;14.14;96.43;96568.59;5052987;28;19975;-80
2022/09/04 02:23:34;;;;;;;;;;;;;;;14.12;96.64;96576.75;5036021;28;19989;-80
2022/09/04 02:26:10;;;;;;;;;;;;;;;14.12;97.27;96579.38;5051557;28;19998;-79
2022/09/04 02:28:46;;;;;;;;;;;;;;;14.10;96.95;96581.44;5046060;28;19986;-80
2022/09/04 02:31:28;;;;;;;;;;;;;;;14.07;96.86;96578.47;5043657;28;19966;-79
2022/09/04 02:34:04;;;;;;;;;;;;;;;14.06;96.94;96577.69;5043867;28;19968;-80
2022/09/04 02:36:56;;;;;;;;;;;;;;;14.05;97.52;96578.72;5046803;28;20311;-80
2022/09/04 02:39:34;;;;;;;;;;;;;;;14.06;98.14;96579.53;5021492;28;19971;-80
2022/09/04 02:42:05;;;;;;;;;;;;;;;14.06;98.79;96577.69;5041370;28;19974;-80
2022/09/04 02:44:42;;;;;;;;;;;;;;;14.05;98.03;96576.09;5051563;28;19961;-79
2022/09/04 02:47:20;;;;;;;;;;;;;;;14.03;97.28;96570.25;5050251;28;19979;-79
2022/09/04 02:50:18;;;;;;;;;;;;;;;14.02;97.75;96569.44;5042016;28;19982;-79
2022/09/04 02:53:03;;;;;;;;;;;;;;;14.01;97.77;96574.97;5020690;28;19972;-79
2022/09/04 02:55:47;;;;;;;;;;;;;;;13.98;97.24;96570.97;5051885;28;20346;-79
2022/09/04 02:58:35;;;;;;;;;;;;;;;13.96;97.16;96578.31;5046250;28;19971;-79
2022/09/04 03:01:10;;;;;;;;;;;;;;;13.92;96.64;96574.56;5045835;28;19987;-79
2022/09/04 03:03:39;;;;;;;;;;;;;;;13.88;96.70;96573.41;5045436;28;19960;-79
2022/09/04 03:06:10;;;;;;;;;;;;;;;13.85;96.99;96578.34;5048155;28;20371;-79
2022/09/04 03:08:36;;;;;;;;;;;;;;;13.83;97.02;96580.41;5042808;28;19978;-79
2022/09/04 03:11:22;;;;;;;;;;;;;;;13.79;97.29;96580.09;5043222;28;19975;-79
2022/09/04 03:14:11;;;;;;;;;;;;;;;13.77;97.35;96587.41;5046833;28;20441;-79
2022/09/04 03:16:42;;;;;;;;;;;;;;;13.74;97.05;96593.19;5047753;28;19965;-79
2022/09/04 03:19:18;;;;;;;;;;;;;;;13.72;96.97;96590.75;5047899;28;19958;-79
2022/09/04 03:22:03;;;;;;;;;;;;;;;13.71;96.97;96591.81;5046149;28;19966;-79
2022/09/04 03:24:29;;;;;;;;;;;;;;;13.70;97.43;96584.94;5034662;28;19967;-79
2022/09/04 03:26:59;;;;;;;;;;;;;;;13.68;97.21;96594.09;5048189;28;20434;-79
2022/09/04 03:29:31;;;;;;;;;;;;;;;13.66;96.96;96594.34;5046565;28;19976;-79
2022/09/04 03:32:16;;;;;;;;;;;;;;;13.64;96.52;96596.41;5044107;28;19970;-79
2022/09/04 03:35:01;;;;;;;;;;;;;;;13.63;96.75;96596.63;5046931;28;19963;-79
2022/09/04 03:37:30;;;;;;;;;;;;;;;13.60;96.93;96595.25;5050977;28;19962;-79
2022/09/04 03:39:55;;;;;;;;;;;;;;;13.56;96.56;96588.84;5044956;28;20495;-79
2022/09/04 03:42:27;;;;;;;;;;;;;;;13.55;97.09;96603.88;5038487;28;19966;-79
2022/09/04 03:45:19;;;;;;;;;;;;;;;13.52;96.68;96596.44;5050123;28;19968;-79
2022/09/04 03:48:00;;;;;;;;;;;;;;;13.50;97.02;96598.50;5028154;28;20061;-79
2022/09/04 03:50:34;;;;;;;;;;;;;;;13.48;97.12;96602.38;5037200;28;19955;-79
2022/09/04 03:53:11;;;;;;;;;;;;;;;13.45;97.15;96602.88;5043109;28;20403;-79
2022/09/04 03:55:37;;;;;;;;;;;;;;;13.45;97.46;96602.88;5041873;28;19971;-79
2022/09/04 03:58:15;;;;;;;;;;;;;;;13.44;96.78;96599.44;5042367;28;19978;-79
2022/09/04 04:00:58;;;;;;;;;;;;;;;13.44;97.31;96604.72;5041293;28;19973;-79
2022/09/04 04:03:30;;;;;;;;;;;;;;;13.42;96.95;96613.84;5025221;28;20311;-79
2022/09/04 04:06:01;;;;;;;;;;;;;;;13.39;96.68;96613.28;5042439;28;19970;-78
2022/09/04 04:08:46;;;;;;;;;;;;;;;13.38;96.06;96616.97;5031799;28;19985;-79
2022/09/04 04:11:25;;;;;;;;;;;;;;;13.36;96.41;96621.66;5042666;28;19967;-79
2022/09/04 04:14:09;;;;;;;;;;;;;;;13.33;96.62;96622.13;5046086;28;19966;-79
2022/09/04 04:16:39;;;;;;;;;;;;;;;13.31;96.63;96624.19;5047698;28;19968;-78
2022/09/04 04:19:19;;;;;;;;;;;;;;;13.30;95.89;96621.78;5044762;28;19961;-78
2022/09/04 04:22:03;;;;;;;;;;;;;;;13.28;95.94;96629.88;5048610;28;19959;-79
2022/09/04 04:24:47;;;;;;;;;;;;;;;13.28;97.01;96634.34;5036435;28;19958;-79
2022/09/04 04:27:25;;;;;;;;;;;;;;;13.26;96.78;96633.78;5043571;28;19988;-78
2022/09/04 04:29:54;;;;;;;;;;;;;;;13.26;97.55;96641.69;5042110;28;19970;-79
2022/09/04 04:32:20;;;;;;;;;;;;;;;13.27;97.99;96645.91;5041409;28;20331;-79
2022/09/04 04:34:55;;;;;;;;;;;;;;;13.27;98.47;96649.38;5046958;28;19964;-79
2022/09/04 04:37:24;;;;;;;;;;;;;;;13.26;99.22;96650.38;5049453;28;20453;-79
2022/09/04 04:39:57;;;;;;;;;;;;;;;13.28;99.17;96655.41;5041243;28;20213;-79
2022/09/04 04:42:30;;;;;;;;;;;;;;;13.27;98.70;96651.16;5040968;28;19996;-79
2022/09/04 04:48:24;;;;;;;;;;;;;;;13.23;97.64;96657.94;5043837;28;19990;-79
2022/09/04 04:50:52;;;;;;;;;;;;;;;13.22;97.97;96653.69;4997226;28;20329;-79
2022/09/04 04:53:29;;;;;;;;;;;;;;;13.21;97.93;96660.81;5041276;28;19969;-79
2022/09/04 04:56:05;;;;;;;;;;;;;;;13.19;97.85;96663.66;5047757;28;19966;-79
2022/09/04 04:58:31;;;;;;;;;;;;;;;13.18;97.42;96669.16;5047886;28;20451;-78
2022/09/04 05:01:04;;;;;;;;;;;;;;;13.18;98.11;96675.22;5041467;28;19996;-79
2022/09/04 05:03:48;;;;;;;;;;;;;;;13.20;98.83;96685.53;5040521;28;19961;-79
2022/09/04 05:06:35;;;;;;;;;;;;;;;13.20;99.13;96680.25;5041642;28;19970;-79
2022/09/04 05:09:00;;;;;;;;;;;;;;;13.20;100.00;96675.78;5050118;28;19987;-78
2022/09/04 05:11:45;;;;;;;;;;;;;;;13.23;100.00;96692.16;5040625;28;19965;-79
2022/09/04 05:14:29;;;;;;;;;;;;;;;13.25;100.00;96692.75;5039024;28;19968;-79
2022/09/04 05:17:19;;;;;;;;;;;;;;;13.27;99.88;96696.78;5044304;28;19961;-79
2022/09/04 05:20:13;;;;;;;;;;;;;;;13.30;100.00;96708.69;5039337;28;19972;-79
2022/09/04 05:22:49;;;;;;;;;;;;;;;13.56;100.00;96702.16;5040693;28;19955;-79
2022/09/04 05:25:24;;;;;;;;;;;;;;;14.06;98.10;96698.19;5040724;28;19980;-79
2022/09/04 05:27:50;;;;;;;;;;;;;;;14.64;95.83;96705.13;5042657;28;20000;-79
2022/09/04 05:30:18;;;;;;;;;;;;;;;15.15;93.21;96705.16;5043684;28;19964;-79
2022/09/04 05:32:55;;;;;;;;;;;;;;;15.63;90.91;96712.47;5048629;28;19956;-79
2022/09/04 05:35:41;;;;;;;;;;;;;;;16.12;88.74;96716.31;5041239;28;19975;-79
2022/09/04 05:38:14;;;;;;;;;;;;;;;16.62;86.25;96715.28;5059020;28;19958;-79
2022/09/04 05:40:58;;;;;;;;;;;;;;;17.03;84.19;96718.34;5054882;28;19981;-79
2022/09/04 05:43:43;;;;;;;;;;;;;;;17.44;82.44;96716.78;5049871;28;20428;-79
2022/09/04 05:46:27;;;;;;;;;;;;;;;17.82;80.76;96722.06;5054134;28;19958;-79
2022/09/04 05:49:04;;;;;;;;;;;;;;;18.20;79.49;96720.94;5033501;28;20342;-79
2022/09/04 05:51:49;;;;;;;;;;;;;;;18.55;77.93;96718.66;5058842;28;19960;-79
2022/09/04 05:54:32;;;;;;;;;;;;;;;18.85;76.82;96720.59;5048320;28;19964;-79
2022/09/04 05:57:04;;;;;;;;;;;;;;;19.08;75.00;96707.88;5049915;28;19970;-79
2022/09/04 05:59:30;;;;;;;;;;;;;;;19.29;74.68;96709.44;5054565;28;19964;-79
2022/09/04 06:02:00;;;;;;;;;;;;;;;19.48;73.65;96693.75;5055310;28;19967;-79
2022/09/04 06:04:42;;;;;;;;;;;;;;;19.64;72.99;96702.50;5053169;28;19968;-79
2022/09/04 06:07:17;;;;;;;;;;;;;;;19.79;73.02;96712.34;5045709;28;19950;-79
2022/09/04 06:09:58;;;;;;;;;;;;;;;19.89;72.36;96703.53;5046498;28;19972;-79
2022/09/04 06:12:43;;;;;;;;;;;;;;;19.93;71.92;96712.56;5050888;28;19962;-80
2022/09/04 06:15:20;;;;;;;;;;;;;;;19.89;71.80;96719.50;5055493;28;19973;-80
2022/09/04 06:18:01;;;;;;;;;;;;;;;19.89;71.95;96719.50;5051688;28;20350;-80
2022/09/04 06:20:46;;;;;;;;;;;;;;;19.88;72.10;96734.66;5047373;28;20335;-80
2022/09/04 06:23:17;;;;;;;;;;;;;;;19.78;71.69;96724.03;5046791;28;19961;-80
2022/09/04 06:25:46;;;;;;;;;;;;;;;19.67;71.46;96723.22;5048716;28;20408;-78
2022/09/04 06:28:38;;;;;;;;;;;;;;;19.60;72.36;96736.81;5054857;28;20430;-80
2022/09/04 06:31:20;;;;;;;;;;;;;;;19.52;70.88;96726.72;5046200;28;19951;-80
2022/09/04 06:34:04;;;;;;;;;;;;;;;19.42;73.70;96754.16;5051158;28;20435;-80
2022/09/04 06:36:30;;;;;;;;;;;;;;;19.44;73.17;96745.88;5053562;28;19957;-79
2022/09/04 06:38:56;;;;;;;;;;;;;;;19.45;74.08;96752.81;5046818;28;19959;-79
2022/09/04 06:41:40;;;;;;;;;;;;;;;19.45;74.80;96760.78;5050061;28;19966;-79
2022/09/04 06:44:13;;;;;;;;;;;;;;;19.49;73.84;96751.22;5046895;28;19965;-79
2022/09/04 06:46:45;;;;;;;;;;;;;;;19.48;73.75;96749.59;5052500;28;19967;-80
2022/09/04 06:49:14;;;;;;;;;;;;;;;19.48;74.57;96761.03;5050187;28;19972;-79
2022/09/04 06:51:59;;;;;;;;;;;;;;;19.50;73.47;96760.78;5042082;28;19962;-79
2022/09/04 06:54:37;;;;;;;;;;;;;;;19.48;75.35;96778.84;5045256;28;20425;-79
2022/09/04 06:57:22;;;;;;;;;;;;;;;19.54;75.40;96780.44;5034256;28;20346;-79
2022/09/04 06:59:59;;;;;;;;;;;;;;;19.63;75.07;96778.06;5045343;28;19964;-79
2022/09/04 07:02:37;;;;;;;;;;;;;;;19.68;74.94;96778.84;5052381;28;19964;-79
2022/09/04 07:05:22;;;;;;;;;;;;;;;19.66;75.32;96790.84;5046400;28;19960;-79
2022/09/04 07:08:06;;;;;;;;;;;;;;;19.62;73.33;96784.44;5046534;28;19986;-79
2022/09/04 07:10:35;;;;;;;;;;;;;;;19.46;73.80;96783.66;5041901;28;19965;-79
2022/09/04 07:13:30;;;;;;;;;;;;;;;19.42;76.74;96806.53;5042555;28;19955;-79
2022/09/04 07:16:15;;;;;;;;;;;;;;;19.56;76.59;96798.81;5017619;28;20441;-79
2022/09/04 07:19:02;;;;;;;;;;;;;;;19.78;75.70;96793.22;5040413;28;19975;-79
2022/09/04 07:21:43;;;;;;;;;;;;;;;19.85;72.99;96780.47;5046568;28;20364;-79
2022/09/04 07:24:09;;;;;;;;;;;;;;;19.85;74.34;96788.44;5046509;28;20287;-79
2022/09/04 07:26:53;;;;;;;;;;;;;;;19.89;74.49;96788.72;5045865;28;20021;-79
2022/09/04 07:29:34;;;;;;;;;;;;;;;19.93;75.86;96809.19;5045888;28;20328;-78
2022/09/04 07:32:17;;;;;;;;;;;;;;;19.95;72.84;96790.28;5039862;28;20318;-79
2022/09/04 07:35:06;;;;;;;;;;;;;;;20.01;75.34;96807.84;5044114;28;19966;-79
2022/09/04 07:37:38;;;;;;;;;;;;;;;19.96;73.47;96790.00;5035588;28;19955;-79
2022/09/04 07:40:13;;;;;;;;;;;;;;;19.95;76.20;96815.06;5040950;28;19974;-79
2022/09/04 07:42:58;;;;;;;;;;;;;;;20.04;74.42;96808.09;5046430;28;19960;-79
2022/09/04 07:45:24;;;;;;;;;;;;;;;20.10;73.80;96810.78;5030194;28;20428;-79
2022/09/04 07:48:01;;;;;;;;;;;;;;;20.14;75.25;96817.13;5045255;28;20026;-79
2022/09/04 07:50:34;;;;;;;;;;;;;;;20.27;73.63;96800.59;5047328;28;20423;-79
2022/09/04 07:53:20;;;;;;;;;;;;;;;20.25;73.52;96806.19;5047737;28;20448;-79
2022/09/04 07:55:59;;;;;;;;;;;;;;;20.41;74.51;96817.59;5049241;28;19967;-79
2022/09/04 07:58:30;;;;;;;;;;;;;;;20.49;72.54;96802.91;5040177;28;19970;-79
2022/09/04 08:01:15;;;;;;;;;;;;;;;20.53;72.66;96808.50;5044644;28;19976;-79
2022/09/04 08:03:54;;;;;;;;;;;;;;;20.63;71.29;96795.16;5048331;28;19979;-79
2022/09/04 08:06:20;;;;;;;;;;;;;;;20.72;72.69;96812.16;5046718;28;19995;-79
2022/09/04 08:09:06;;;;;;;;;;;;;;;20.82;73.91;96822.78;5044207;28;19988;-79
2022/09/04 08:11:32;;;;;;;;;;;;;;;20.95;72.67;96825.91;5016746;28;19968;-79
2022/09/04 08:14:18;;;;;;;;;;;;;;;20.86;70.12;96815.03;5045023;28;20013;-79
2022/09/04 08:16:58;;;;;;;;;;;;;;;20.82;71.94;96825.44;5043416;28;20377;-79
2022/09/04 08:19:33;;;;;;;;;;;;;;;20.91;72.61;96833.66;5039762;28;19971;-79
2022/09/04 08:22:01;;;;;;;;;;;;;;;21.02;71.82;96835.22;5046588;28;19983;-79
2022/09/04 08:24:37;;;;;;;;;;;;;;;21.13;72.54;96830.63;5049391;28;19974;-79
2022/09/04 08:27:02;;;;;;;;;;;;;;;21.23;71.45;96827.06;5047310;28;19997;-79
2022/09/04 08:29:49;;;;;;;;;;;;;;;21.30;72.15;96832.91;5044083;28;19999;-80
2022/09/04 08:32:21;;;;;;;;;;;;;;;21.43;71.77;96831.50;5043070;28;20425;-79
2022/09/04 08:35:04;;;;;;;;;;;;;;;21.47;69.51;96811.19;5038206;28;19971;-79
2022/09/04 08:37:30;;;;;;;;;;;;;;;21.60;70.87;96831.13;5042811;28;19969;-79
2022/09/04 08:40:14;;;;;;;;;;;;;;;21.77;71.07;96841.38;5049121;28;20053;-79
2022/09/04 08:42:55;;;;;;;;;;;;;;;21.92;67.93;96819.09;5043403;28;19987;-79
2022/09/04 08:45:42;;;;;;;;;;;;;;;21.80;67.54;96812.25;5043253;28;19962;-79
2022/09/04 08:48:10;;;;;;;;;;;;;;;21.78;68.23;96819.75;5049347;28;19980;-79
2022/09/04 08:50:50;;;;;;;;;;;;;;;21.81;66.50;96813.06;5044805;28;19996;-79
2022/09/04 08:53:28;;;;;;;;;;;;;;;21.87;70.28;96839.41;5043362;28;20463;-79
2022/09/04 08:55:54;;;;;;;;;;;;;;;21.99;68.77;96828.38;5042073;28;19976;-79
2022/09/04 08:58:39;;;;;;;;;;;;;;;22.10;69.37;96826.41;5043204;28;20314;-79
2022/09/04 09:01:11;;;;;;;;;;;;;;;22.21;67.34;96821.75;5037134;28;19950;-79
2022/09/04 09:03:52;;;;;;;;;;;;;;;22.23;67.37;96825.75;5049402;28;20454;-79
2022/09/04 09:06:36;;;;;;;;;;;;;;;22.35;67.46;96813.88;5046205;28;20415;-79
2022/09/04 09:09:21;;;;;;;;;;;;;;;22.40;66.86;96814.59;5044855;28;19975;-79
2022/09/04 09:12:02;;;;;;;;;;;;;;;22.41;65.88;96813.53;5027252;28;19969;-79
2022/09/04 09:14:47;;;;;;;;;;;;;;;22.45;66.84;96811.09;5041426;28;20332;-79
2022/09/04 09:17:15;;;;;;;;;;;;;;;22.34;66.59;96809.59;5041116;28;19962;-79
2022/09/04 09:19:41;;;;;;;;;;;;;;;22.35;67.54;96819.22;5042808;28;19975;-79
2022/09/04 09:22:09;;;;;;;;;;;;;;;22.34;66.98;96817.63;5044376;28;20410;-79
2022/09/04 09:24:38;;;;;;;;;;;;;;;22.29;66.10;96807.78;5042626;28;19964;-79
2022/09/04 09:27:04;;;;;;;;;;;;;;;22.32;67.96;96822.47;5044638;28;19999;-79
2022/09/04 09:29:40;;;;;;;;;;;;;;;22.32;65.39;96801.88;5038931;28;20029;-79
2022/09/04 09:32:12;;;;;;;;;;;;;;;22.35;67.78;96827.25;5043859;28;19971;-79
2022/09/04 09:34:53;;;;;;;;;;;;;;;22.37;66.10;96814.41;5045842;28;19967;-79
2022/09/04 09:37:25;;;;;;;;;;;;;;;22.37;64.28;96787.69;5042441;28;19966;-79
2022/09/04 09:40:00;;;;;;;;;;;;;;;22.29;65.14;96797.09;5045036;28;20033;-79
2022/09/04 09:42:47;;;;;;;;;;;;;;;22.21;63.80;96797.69;5040588;28;19988;-79
2022/09/04 09:45:21;;;;;;;;;;;;;;;22.29;66.30;96815.81;5036543;28;19982;-79
2022/09/04 09:48:09;;;;;;;;;;;;;;;22.31;64.67;96794.16;5040125;28;20336;-79
2022/09/04 09:50:50;;;;;;;;;;;;;;;22.27;66.60;96813.41;5019709;28;19974;-79
2022/09/04 09:53:39;;;;;;;;;;;;;;;22.25;64.41;96791.53;5040900;28;19963;-79
2022/09/04 09:56:14;;;;;;;;;;;;;;;22.23;63.99;96788.34;5024725;28;19980;-79
2022/09/04 09:58:49;;;;;;;;;;;;;;;22.27;63.83;96793.94;5043042;28;20337;-79
2022/09/04 10:01:24;;;;;;;;;;;;;;;22.34;64.93;96797.03;5037197;28;19969;-79
2022/09/04 10:03:53;;;;;;;;;;;;;;;22.46;65.29;96792.09;5042584;28;20358;-80
2022/09/04 10:06:25;;;;;;;;;;;;;;;22.63;65.14;96791.63;5040323;28;19967;-79
2022/09/04 10:09:10;;;;;;;;;;;;;;;22.81;62.42;96763.31;5024915;28;19983;-80
2022/09/04 10:11:55;;;;;;;;;;;;;;;23.02;62.87;96771.88;5039121;28;19964;-79
2022/09/04 10:14:39;;;;;;;;;;;;;;;23.19;61.66;96757.97;5045332;28;19969;-79
2022/09/04 10:17:21;;;;;;;;;;;;;;;23.26;60.31;96736.19;5030277;28;19970;-79
2022/09/04 10:20:07;;;;;;;;;;;;;;;23.30;58.90;96718.47;5043352;28;19971;-79
2022/09/04 10:22:33;;;;;;;;;;;;;;;23.40;56.16;96709.47;5039853;28;20333;-79
2022/09/04 10:25:14;;;;;;;;;;;;;;;23.46;55.55;96697.59;5044854;28;19969;-78
2022/09/04 10:27:51;;;;;;;;;;;;;;;23.43;57.54;96716.91;5035329;28;19993;-78
2022/09/04 10:30:17;;;;;;;;;;;;;;;23.65;57.94;96729.66;5042688;28;19989;-79
2022/09/04 10:32:43;;;;;;;;;;;;;;;23.85;58.39;96723.16;5044564;28;19960;-79
2022/09/04 10:35:24;;;;;;;;;;;;;;;24.05;54.89;96701.34;5050035;28;20017;-79
2022/09/04 10:37:49;;;;;;;;;;;;;;;24.23;55.71;96710.38;5051798;28;19972;-79
2022/09/04 10:40:34;;;;;;;;;;;;;;;24.44;54.89;96699.19;5046823;28;19965;-79
2022/09/04 10:43:18;;;;;;;;;;;;;;;24.49;54.22;96697.25;5049968;28;19962;-79
2022/09/04 10:45:45;;;;;;;;;;;;;;;24.65;54.36;96710.28;5049075;28;19954;-79
2022/09/04 10:48:28;;;;;;;;;;;;;;;24.82;55.69;96729.25;5046983;28;19964;-79
2022/09/04 10:51:00;;;;;;;;;;;;;;;25.07;53.68;96701.03;5027339;28;19953;-79
2022/09/04 10:53:51;;;;;;;;;;;;;;;25.10;53.35;96703.09;5047550;28;19977;-78
2022/09/04 10:56:29;;;;;;;;;;;;;;;25.08;53.39;96728.66;5026271;28;20071;-79
2022/09/04 10:59:09;;;;;;;;;;;;;;;24.92;46.53;96687.97;5043524;28;19969;-78
2022/09/04 11:01:41;;;;;;;;;;;;;;;25.02;52.95;96748.66;5048315;28;20351;-79
2022/09/04 11:04:12;;;;;;;;;;;;;;;25.24;53.64;96753.25;5045841;28;19968;-79
2022/09/04 11:06:51;;;;;;;;;;;;;;;25.49;51.72;96743.78;5049509;28;19971;-79
2022/09/04 11:09:35;;;;;;;;;;;;;;;25.77;50.62;96746.31;5049995;28;19988;-79
2022/09/04 11:12:10;;;;;;;;;;;;;;;25.91;47.83;96725.53;5034844;28;19966;-79
2022/09/04 11:14:48;;;;;;;;;;;;;;;26.05;51.26;96758.47;5044345;28;19958;-79
2022/09/04 11:17:29;;;;;;;;;;;;;;;26.27;47.78;96732.59;5048819;28;19958;-79
2022/09/04 11:19:59;;;;;;;;;;;;;;;26.42;48.19;96729.50;5030030;28;19964;-79
2022/09/04 11:22:33;;;;;;;;;;;;;;;26.44;48.63;96734.56;5046609;28;19966;-79
2022/09/04 11:25:00;;;;;;;;;;;;;;;26.45;45.20;96722.69;5047203;28;19959;-78
2022/09/04 11:27:29;;;;;;;;;;;;;;;26.47;46.14;96739.31;5051013;28;19985;-79
2022/09/04 11:30:04;;;;;;;;;;;;;;;26.46;43.79;96735.03;5043004;28;19982;-79
2022/09/04 11:33:03;;;;;;;;;;;;;;;26.39;48.10;96765.06;5042718;28;19982;-79
2022/09/04 11:35:44;;;;;;;;;;;;;;;26.64;47.35;96771.63;5012100;28;19967;-79
2022/09/04 11:38:13;;;;;;;;;;;;;;;26.94;44.11;96747.59;5045003;28;19953;-78
2022/09/04 11:40:42;;;;;;;;;;;;;;;27.18;45.61;96747.13;5049839;28;20309;-79
2022/09/04 11:43:17;;;;;;;;;;;;;;;27.10;44.99;96754.09;5043445;28;19964;-79
2022/09/04 11:46:02;;;;;;;;;;;;;;;26.81;43.90;96768.19;5043827;28;19964;-79
2022/09/04 11:48:46;;;;;;;;;;;;;;;26.41;41.29;96743.25;5047803;28;19963;-79
2022/09/04 11:51:15;;;;;;;;;;;;;;;26.15;45.51;96778.91;5051399;28;19969;-79
2022/09/04 11:53:47;;;;;;;;;;;;;;;26.37;48.04;96779.94;5043190;28;19959;-79
2022/09/04 11:56:25;;;;;;;;;;;;;;;26.71;46.99;96774.66;5039163;28;19962;-79
2022/09/04 11:58:54;;;;;;;;;;;;;;;26.89;45.50;96761.22;5046911;28;19979;-79
2022/09/04 12:01:38;;;;;;;;;;;;;;;26.87;44.87;96761.53;5047164;28;19960;-79
2022/09/04 12:04:24;;;;;;;;;;;;;;;26.98;45.19;96772.78;5045684;28;19961;-79
2022/09/04 12:06:50;;;;;;;;;;;;;;;26.86;45.93;96780.72;5038678;28;19965;-79
2022/09/04 12:09:34;;;;;;;;;;;;;;;26.66;44.88;96772.13;5043556;28;20027;-79
2022/09/04 12:12:16;;;;;;;;;;;;;;;26.45;43.77;96768.41;5045673;28;19956;-79
2022/09/04 12:14:48;;;;;;;;;;;;;;;26.42;43.12;96760.97;5046002;28;19977;-79
2022/09/04 12:17:33;;;;;;;;;;;;;;;26.54;44.05;96769.22;5043746;28;19964;-79
2022/09/04 12:20:06;;;;;;;;;;;;;;;26.62;42.66;96773.06;5047957;28;19980;-79
2022/09/04 12:22:51;;;;;;;;;;;;;;;26.63;42.65;96767.38;5049495;28;20406;-79
2022/09/04 12:25:22;;;;;;;;;;;;;;;26.65;43.18;96765.16;5040977;28;19962;-79
2022/09/04 12:27:51;;;;;;;;;;;;;;;26.67;40.93;96756.78;5032688;28;20356;-79
2022/09/04 12:30:19;;;;;;;;;;;;;;;26.64;42.61;96762.78;5044783;28;20348;-79
2022/09/04 12:33:01;;;;;;;;;;;;;;;26.50;43.23;96768.25;5039580;28;19965;-79
2022/09/04 12:35:42;;;;;;;;;;;;;;;26.16;45.10;96783.16;5037463;28;19960;-80
2022/09/04 12:38:23;;;;;;;;;;;;;;;25.91;44.48;96781.97;5045020;28;19953;-79
2022/09/04 12:40:49;;;;;;;;;;;;;;;25.78;45.59;96786.28;5038519;28;19969;-79
2022/09/04 12:43:15;;;;;;;;;;;;;;;26.05;46.06;96784.56;5047770;28;19957;-79
2022/09/04 12:45:44;;;;;;;;;;;;;;;26.33;43.64;96775.19;5046477;28;19996;-79
2022/09/04 12:48:26;;;;;;;;;;;;;;;26.59;44.00;96773.69;5041315;28;19968;-80
2022/09/04 12:50:56;;;;;;;;;;;;;;;26.79;44.99;96783.06;5038994;28;19972;-79
2022/09/04 12:53:43;;;;;;;;;;;;;;;26.93;43.73;96767.56;5030306;28;19967;-79
2022/09/04 12:56:41;;;;;;;;;;;;;;;26.92;42.42;96768.66;5039344;28;19969;-79
2022/09/04 12:59:30;;;;;;;;;;;;;;;26.88;41.64;96763.13;5041410;28;20350;-79
2022/09/04 13:01:56;;;;;;;;;;;;;;;26.89;43.19;96782.75;5039065;28;19959;-79
2022/09/04 13:04:41;;;;;;;;;;;;;;;27.00;41.04;96757.09;5045117;28;19961;-79
2022/09/04 13:07:07;;;;;;;;;;;;;;;27.19;42.57;96772.16;5050580;28;19966;-80
2022/09/04 13:09:33;;;;;;;;;;;;;;;27.37;43.21;96776.44;5040686;28;20342;-80
2022/09/04 13:12:05;;;;;;;;;;;;;;;27.52;42.50;96772.47;5037053;28;20425;-80
2022/09/04 13:14:51;;;;;;;;;;;;;;;27.58;40.09;96757.72;5048970;28;20033;-79
2022/09/04 13:17:17;;;;;;;;;;;;;;;27.49;42.19;96773.91;5035625;28;19970;-80
2022/09/04 13:19:44;;;;;;;;;;;;;;;27.51;43.03;96777.06;5045474;28;20547;-80
2022/09/04 13:22:26;;;;;;;;;;;;;;;27.54;39.92;96756.78;5043038;28;19963;-79
2022/09/04 13:25:08;;;;;;;;;;;;;;;27.51;41.88;96762.81;5041202;28;19966;-80
2022/09/04 13:27:39;;;;;;;;;;;;;;;27.49;39.69;96754.25;5044941;28;20333;-79
2022/09/04 13:30:20;;;;;;;;;;;;;;;27.18;38.29;96739.06;5046614;28;19983;-80
2022/09/04 13:32:51;;;;;;;;;;;;;;;26.92;39.90;96758.72;5039823;28;19966;-79
2022/09/04 13:35:37;;;;;;;;;;;;;;;26.93;41.62;96773.72;5043646;28;19964;-79
2022/09/04 13:38:09;;;;;;;;;;;;;;;26.92;41.82;96769.47;5009846;28;19966;-79